Time;durP1;ratioP1;P1;durP2;ratioP2;P2;SDS_P1;SDS_P2;PMS_P1;PMS_P2;Temp;Humidity;BMP_temperature;BMP_pressure;BME280_temperature;BME280_humidity;BME280_pressure;Samples;Min_cycle;Max_cycle;Signal;HPM_P1;HPM_P2
2024/01/24 11:08:58;;;;;;;24.47;6.90;;;9.60;99.90;;;;;;5059075;27;1991455;-59
2024/01/24 11:11:31;;;;;;;22.93;7.17;;;9.60;99.90;;;;;;5106130;28;20221;-63
2024/01/24 11:13:59;;;;;;;24.83;6.60;;;9.50;99.90;;;;;;5105700;28;20191;-66
2024/01/24 11:16:31;;;;;;;28.87;8.10;;;9.50;99.90;;;;;;5105605;28;20835;-63
2024/01/24 11:19:18;;;;;;;25.03;6.47;;;9.50;99.90;;;;;;5105707;28;20229;-65
2024/01/24 11:21:47;;;;;;;26.07;7.47;;;9.50;99.90;;;;;;5105818;28;20207;-65
2024/01/24 11:24:52;;;;;;;25.40;6.67;;;9.50;99.90;;;;;;5105429;28;20649;-68
2024/01/24 11:27:30;;;;;;;29.23;6.73;;;9.60;99.90;;;;;;5105423;28;20229;-65
2024/01/24 11:29:59;;;;;;;29.80;6.97;;;9.50;99.90;;;;;;5105312;28;20206;-66
2024/01/24 11:33:01;;;;;;;25.40;7.20;;;9.40;99.90;;;;;;5105542;28;20550;-64
2024/01/24 11:35:34;;;;;;;28.13;6.33;;;9.50;99.90;;;;;;5105309;28;20659;-66
2024/01/24 11:38:04;;;;;;;21.43;6.63;;;9.40;99.90;;;;;;5105008;28;20595;-65
2024/01/24 11:40:38;;;;;;;36.37;7.33;;;9.40;99.90;;;;;;5105039;28;20583;-66
2024/01/24 11:43:07;;;;;;;26.07;6.83;;;9.50;99.90;;;;;;5086591;28;20213;-65
2024/01/24 11:45:35;;;;;;;31.30;7.43;;;9.40;99.90;;;;;;5104795;28;20191;-64
2024/01/24 11:48:09;;;;;;;26.97;7.03;;;9.50;99.90;;;;;;5105040;28;21092;-66
2024/01/24 11:50:37;;;;;;;30.97;7.93;;;9.50;99.90;;;;;;5105065;28;20197;-66
2024/01/24 11:53:05;;;;;;;28.20;7.67;;;9.40;99.90;;;;;;5104957;28;20201;-67
2024/01/24 11:55:34;;;;;;;27.23;7.47;;;9.40;99.90;;;;;;5104814;28;20248;-63
2024/01/24 11:58:05;;;;;;;29.73;7.73;;;9.50;99.90;;;;;;5086817;28;20297;-66
2024/01/24 12:00:33;;;;;;;25.90;7.80;;;9.50;99.90;;;;;;5105484;28;20733;-68
2024/01/24 12:03:02;;;;;;;33.60;8.57;;;9.50;99.90;;;;;;5104790;28;20226;-64
2024/01/24 12:05:30;;;;;;;28.63;7.73;;;9.50;99.90;;;;;;5104734;28;20746;-66
2024/01/24 12:07:59;;;;;;;24.20;7.27;;;9.50;99.90;;;;;;5104330;28;20235;-63
2024/01/24 12:10:27;;;;;;;31.67;8.00;;;9.50;99.90;;;;;;5104885;28;20202;-67
2024/01/24 12:12:55;;;;;;;28.30;8.33;;;9.50;99.90;;;;;;5105032;28;20202;-65
2024/01/24 12:15:26;;;;;;;22.07;7.10;;;9.50;99.90;;;;;;5105128;28;20302;-62
2024/01/24 12:18:02;;;;;;;25.87;6.97;;;9.50;99.90;;;;;;5104537;28;20199;-64
2024/01/24 12:20:31;;;;;;;30.83;8.70;;;9.40;99.90;;;;;;5090916;28;20245;-65
2024/01/24 12:23:00;;;;;;;28.60;7.97;;;9.40;99.90;;;;;;5091082;28;20196;-64
2024/01/24 12:25:28;;;;;;;17.50;6.90;;;9.40;99.90;;;;;;5091563;28;20197;-64
2024/01/24 12:27:58;;;;;;;30.93;8.47;;;9.40;99.90;;;;;;5091020;28;20709;-62
2024/01/24 12:30:32;;;;;;;28.93;7.87;;;9.50;99.90;;;;;;5091012;28;20203;-66
2024/01/24 12:33:01;;;;;;;32.70;7.90;;;9.40;99.90;;;;;;5090907;28;20570;-66
2024/01/24 12:35:30;;;;;;;25.30;6.53;;;9.40;99.90;;;;;;5090892;28;20204;-66
2024/01/24 12:37:59;;;;;;;22.10;6.33;;;9.40;99.90;;;;;;5090926;28;20203;-63
2024/01/24 12:40:28;;;;;;;28.33;7.77;;;9.40;99.90;;;;;;5090796;28;20719;-64
2024/01/24 12:42:57;;;;;;;29.00;7.10;;;9.40;99.90;;;;;;5090687;28;20192;-66
2024/01/24 12:45:28;;;;;;;29.90;6.93;;;9.40;99.90;;;;;;5090672;28;20250;-66
2024/01/24 12:47:57;;;;;;;24.30;6.20;;;9.30;99.90;;;;;;5090950;28;20256;-63
2024/01/24 12:50:25;;;;;;;21.87;7.33;;;9.20;99.90;;;;;;5090459;28;20207;-63
2024/01/24 12:52:54;;;;;;;24.40;7.47;;;9.10;99.90;;;;;;5090732;28;20196;-65
2024/01/24 12:55:22;;;;;;;25.33;7.77;;;9.00;99.90;;;;;;5090806;28;20244;-66
2024/01/24 12:57:50;;;;;;;31.00;8.20;;;8.90;99.90;;;;;;5090688;28;20291;-65
2024/01/24 13:00:19;;;;;;;28.20;8.30;;;8.90;99.90;;;;;;5090166;28;20205;-64
2024/01/24 13:02:50;;;;;;;22.37;7.37;;;8.90;99.90;;;;;;5090563;28;20670;-62
2024/01/24 13:05:18;;;;;;;25.37;6.97;;;8.80;99.90;;;;;;5090465;28;20600;-63
2024/01/24 13:07:48;;;;;;;23.77;6.47;;;8.80;99.90;;;;;;5090059;28;20238;-65
2024/01/24 13:10:17;;;;;;;33.20;7.17;;;8.80;99.90;;;;;;5090047;28;20729;-63
2024/01/24 13:12:45;;;;;;;37.73;7.67;;;8.80;99.90;;;;;;5089774;28;20281;-64
2024/01/24 13:15:14;;;;;;;26.43;7.77;;;8.70;99.90;;;;;;5089981;28;20198;-63
2024/01/24 13:17:42;;;;;;;31.10;7.80;;;8.80;99.90;;;;;;5090169;28;20207;-64
2024/01/24 13:20:13;;;;;;;28.60;6.27;;;8.80;99.90;;;;;;5089821;28;20197;-64
2024/01/24 13:22:41;;;;;;;23.40;6.97;;;8.60;99.90;;;;;;5089745;28;20657;-65
2024/01/24 13:25:09;;;;;;;21.40;6.23;;;8.60;99.90;;;;;;5089819;28;20217;-65
2024/01/24 13:27:38;;;;;;;25.33;6.70;;;8.60;99.90;;;;;;5089773;28;20850;-66
2024/01/24 13:30:07;;;;;;;28.63;8.10;;;8.60;99.90;;;;;;5070415;28;20611;-62
2024/01/24 13:32:37;;;;;;;29.23;6.87;;;8.60;99.90;;;;;;5089494;28;20192;-62
2024/01/24 13:35:06;;;;;;;26.97;6.77;;;8.70;99.90;;;;;;5089683;28;20227;-63
2024/01/24 13:37:36;;;;;;;28.13;6.30;;;8.70;99.90;;;;;;5086065;28;20207;-61
2024/01/24 13:40:08;;;;;;;23.57;6.93;;;8.70;99.90;;;;;;5078686;28;20234;-64
2024/01/24 13:42:37;;;;;;;22.60;6.60;;;8.70;99.90;;;;;;5074364;28;20653;-62
2024/01/24 13:45:06;;;;;;;29.93;7.73;;;8.70;99.90;;;;;;5089912;28;20236;-66
2024/01/24 13:47:34;;;;;;;31.73;6.67;;;8.70;99.90;;;;;;5089801;28;20625;-60
2024/01/24 13:50:03;;;;;;;33.80;8.07;;;8.80;99.90;;;;;;5089790;28;20241;-64
2024/01/24 13:52:31;;;;;;;25.97;7.90;;;8.80;99.90;;;;;;5089466;28;20276;-64
2024/01/24 13:55:01;;;;;;;25.67;8.10;;;8.80;99.90;;;;;;5090036;28;20197;-64
2024/01/24 13:57:30;;;;;;;27.40;7.20;;;8.70;99.90;;;;;;5090134;28;20268;-61
2024/01/24 13:59:58;;;;;;;32.20;7.87;;;8.80;99.90;;;;;;5070708;28;20791;-63
2024/01/24 14:02:27;;;;;;;26.43;7.60;;;8.90;99.90;;;;;;5089611;28;20201;-62
2024/01/24 14:04:57;;;;;;;24.80;8.30;;;8.80;99.90;;;;;;5089563;28;20644;-62
2024/01/24 14:07:25;;;;;;;25.50;7.30;;;8.80;99.90;;;;;;5070234;28;20791;-65
2024/01/24 14:09:53;;;;;;;36.37;7.80;;;8.90;99.90;;;;;;5089321;28;20315;-65
2024/01/24 14:12:23;;;;;;;28.63;7.73;;;8.80;99.90;;;;;;5089279;28;20196;-60
2024/01/24 14:14:51;;;;;;;24.83;6.50;;;8.90;99.90;;;;;;5089364;28;20967;-64
2024/01/24 14:17:22;;;;;;;27.80;7.63;;;8.90;99.90;;;;;;5071169;28;20194;-63
2024/01/24 14:19:50;;;;;;;27.13;7.87;;;8.90;99.90;;;;;;5089178;28;20198;-63
2024/01/24 14:22:19;;;;;;;24.80;6.90;;;8.80;99.90;;;;;;5088884;28;20191;-61
2024/01/24 14:24:47;;;;;;;23.33;6.63;;;8.90;99.90;;;;;;5088527;28;20199;-62
2024/01/24 14:27:20;;;;;;;20.57;6.60;;;8.80;99.90;;;;;;5088538;28;20263;-63
2024/01/24 14:29:50;;;;;;;31.07;7.23;;;8.70;99.90;;;;;;5088454;28;20219;-61
2024/01/24 14:32:20;;;;;;;22.83;7.07;;;8.70;99.90;;;;;;5088139;28;20207;-62
2024/01/24 14:34:48;;;;;;;21.23;6.20;;;8.80;99.90;;;;;;5088535;28;20246;-63
2024/01/24 14:37:17;;;;;;;26.40;8.17;;;8.80;99.90;;;;;;5088054;28;20197;-64
2024/01/24 14:39:46;;;;;;;18.53;6.43;;;8.80;99.90;;;;;;5088385;28;20220;-62
2024/01/24 14:42:14;;;;;;;22.50;7.20;;;8.80;99.90;;;;;;5087890;28;20199;-61
2024/01/24 14:44:42;;;;;;;21.77;6.30;;;8.80;99.90;;;;;;5088387;28;20192;-61
2024/01/24 14:47:12;;;;;;;37.70;8.67;;;8.80;99.90;;;;;;5088173;28;20207;-66
2024/01/24 14:49:40;;;;;;;21.27;7.13;;;8.90;99.90;;;;;;5069709;28;20658;-64
2024/01/24 14:52:10;;;;;;;25.83;7.53;;;8.80;99.90;;;;;;5087980;28;20295;-65
2024/01/24 14:54:39;;;;;;;32.53;7.63;;;8.80;99.90;;;;;;5088397;28;20200;-66
2024/01/24 14:57:07;;;;;;;22.60;6.80;;;8.80;99.90;;;;;;5088390;28;20666;-65
2024/01/24 14:59:36;;;;;;;20.53;5.77;;;8.70;99.90;;;;;;5088125;28;20226;-65
2024/01/24 15:02:04;;;;;;;22.00;6.20;;;8.70;99.90;;;;;;5088042;28;21062;-65
2024/01/24 15:04:34;;;;;;;22.47;6.57;;;8.70;99.90;;;;;;5088035;28;20202;-64
2024/01/24 15:07:02;;;;;;;23.63;6.60;;;8.70;99.90;;;;;;5087861;28;20240;-65
2024/01/24 15:09:31;;;;;;;33.90;7.83;;;8.70;99.90;;;;;;5087908;28;20232;-63
2024/01/24 15:12:01;;;;;;;26.33;6.87;;;8.70;99.90;;;;;;5088057;28;20655;-61
2024/01/24 15:14:30;;;;;;;26.77;8.33;;;8.70;99.90;;;;;;5087866;28;20297;-63
2024/01/24 15:16:58;;;;;;;15.30;5.43;;;8.60;99.90;;;;;;5088063;28;20198;-63
2024/01/24 15:19:26;;;;;;;23.70;6.90;;;8.50;99.90;;;;;;5088162;28;20193;-62
2024/01/24 15:21:56;;;;;;;24.30;8.03;;;8.50;99.90;;;;;;5087851;28;20204;-63
2024/01/24 15:24:25;;;;;;;20.53;6.80;;;8.50;99.90;;;;;;5087954;28;20253;-64
2024/01/24 15:26:53;;;;;;;24.00;7.20;;;8.50;99.90;;;;;;5087860;28;20195;-62
2024/01/24 15:29:21;;;;;;;24.50;6.97;;;8.50;99.90;;;;;;5087583;28;20226;-64
2024/01/24 15:31:50;;;;;;;27.10;7.07;;;8.40;99.90;;;;;;5086661;28;20198;-64
2024/01/24 15:34:19;;;;;;;24.03;6.43;;;8.40;99.90;;;;;;5087105;28;20201;-65
2024/01/24 15:36:48;;;;;;;23.13;6.27;;;8.50;99.90;;;;;;5087083;28;20250;-65
2024/01/24 15:39:18;;;;;;;25.87;7.80;;;8.40;99.90;;;;;;5087056;28;20207;-62
2024/01/24 15:41:46;;;;;;;24.67;7.97;;;8.40;99.90;;;;;;5086709;28;20210;-65
2024/01/24 15:44:15;;;;;;;23.57;7.73;;;8.30;99.90;;;;;;5086791;28;20268;-63
2024/01/24 15:46:43;;;;;;;20.00;6.73;;;8.40;99.90;;;;;;5068596;28;20671;-66
2024/01/24 15:49:11;;;;;;;18.37;6.70;;;8.30;99.90;;;;;;5086854;28;20214;-65
2024/01/24 15:51:40;;;;;;;25.20;7.13;;;8.30;99.90;;;;;;5086801;28;20195;-64
2024/01/24 15:54:08;;;;;;;29.30;8.10;;;8.40;99.90;;;;;;5088293;28;20624;-63
2024/01/24 15:56:38;;;;;;;24.20;7.33;;;8.40;99.90;;;;;;5090650;28;20207;-62
2024/01/24 15:59:07;;;;;;;26.37;7.10;;;8.40;99.90;;;;;;5090905;28;20211;-62
2024/01/24 16:01:35;;;;;;;29.87;6.73;;;8.30;99.90;;;;;;5090523;28;20659;-65
2024/01/24 16:04:03;;;;;;;25.30;6.70;;;8.30;99.90;;;;;;5090609;28;20203;-66
2024/01/24 16:06:32;;;;;;;32.17;9.03;;;8.30;99.90;;;;;;5090497;28;20776;-63
2024/01/24 16:09:00;;;;;;;25.10;6.93;;;8.40;99.90;;;;;;5090379;28;20706;-63
2024/01/24 16:11:28;;;;;;;25.77;7.57;;;8.30;99.90;;;;;;5090639;28;20283;-60
2024/01/24 16:13:59;;;;;;;33.47;7.93;;;8.30;99.90;;;;;;5090185;28;20215;-66
2024/01/24 16:16:27;;;;;;;20.23;6.83;;;8.30;99.90;;;;;;5090429;28;20643;-63
2024/01/24 16:18:55;;;;;;;25.27;7.80;;;8.30;99.90;;;;;;5090477;28;20201;-65
2024/01/24 16:21:24;;;;;;;26.40;8.80;;;8.30;99.90;;;;;;5090402;28;20680;-63
2024/01/24 16:23:53;;;;;;;29.27;8.43;;;8.30;99.90;;;;;;5089880;28;20213;-62
2024/01/24 16:26:21;;;;;;;29.50;8.17;;;8.30;99.90;;;;;;5090185;28;20205;-65
2024/01/24 16:28:49;;;;;;;22.40;7.40;;;8.20;99.90;;;;;;5090024;28;21065;-64
2024/01/24 16:31:19;;;;;;;33.37;7.57;;;8.20;99.90;;;;;;5090086;28;20930;-64
2024/01/24 16:33:47;;;;;;;27.97;8.50;;;8.30;99.90;;;;;;5089909;28;20232;-65
2024/01/24 16:36:16;;;;;;;25.77;7.03;;;8.30;99.90;;;;;;5089763;28;20204;-65
2024/01/24 16:38:45;;;;;;;22.50;6.67;;;8.30;99.90;;;;;;5089839;28;20186;-64
2024/01/24 16:41:14;;;;;;;21.20;6.17;;;8.20;99.90;;;;;;5089912;28;20198;-63
2024/01/24 16:43:43;;;;;;;21.80;6.20;;;8.20;99.90;;;;;;5089431;28;20206;-62
2024/01/24 16:46:11;;;;;;;20.93;7.20;;;8.20;99.90;;;;;;5089414;28;20207;-64
2024/01/24 16:48:41;;;;;;;20.83;7.30;;;8.20;99.90;;;;;;5089501;28;20680;-65
2024/01/24 16:51:10;;;;;;;27.60;7.77;;;8.20;99.90;;;;;;5089486;28;20575;-64
2024/01/24 16:53:39;;;;;;;27.77;6.87;;;8.20;99.90;;;;;;5089379;28;20672;-65
2024/01/24 16:56:08;;;;;;;23.50;6.23;;;8.20;99.90;;;;;;5089408;28;20210;-65
2024/01/24 16:58:36;;;;;;;27.67;8.03;;;8.20;99.90;;;;;;5090127;28;20660;-64
2024/01/24 17:01:05;;;;;;;24.70;8.30;;;8.20;99.90;;;;;;5089401;28;21006;-64
2024/01/24 17:03:33;;;;;;;33.90;7.63;;;8.20;99.90;;;;;;5088986;28;20707;-64
2024/01/24 17:06:06;;;;;;;26.77;6.70;;;8.20;99.90;;;;;;5089163;28;20197;-61
2024/01/24 17:08:36;;;;;;;27.67;7.87;;;8.20;99.90;;;;;;5088797;28;20233;-64
2024/01/24 17:11:04;;;;;;;22.73;8.53;;;8.20;99.90;;;;;;5089270;28;20845;-63
2024/01/24 17:13:33;;;;;;;22.83;6.47;;;8.20;99.90;;;;;;5089119;28;20256;-65
2024/01/24 17:16:02;;;;;;;23.53;7.83;;;8.20;99.90;;;;;;5089215;28;20202;-65
2024/01/24 17:18:30;;;;;;;26.30;8.30;;;8.20;99.90;;;;;;5089234;28;20680;-65
2024/01/24 17:20:59;;;;;;;22.10;7.03;;;8.20;99.90;;;;;;5089040;28;20296;-65
2024/01/24 17:23:28;;;;;;;31.20;7.87;;;8.20;99.90;;;;;;5088949;28;20707;-62
2024/01/24 17:25:56;;;;;;;24.90;8.50;;;8.10;99.90;;;;;;5088734;28;20195;-63
2024/01/24 17:28:24;;;;;;;32.30;7.80;;;8.20;99.90;;;;;;5088842;28;20197;-63
2024/01/24 17:30:53;;;;;;;31.67;8.10;;;8.20;99.90;;;;;;5088826;28;20219;-66
2024/01/24 17:33:21;;;;;;;28.53;7.93;;;8.20;99.90;;;;;;5088607;28;20195;-66
2024/01/24 17:35:50;;;;;;;34.90;8.57;;;8.30;99.90;;;;;;5088953;28;20273;-68
2024/01/24 17:38:18;;;;;;;25.37;7.90;;;8.30;99.90;;;;;;5088473;28;20288;-69
2024/01/24 17:40:48;;;;;;;42.47;9.47;;;8.30;99.90;;;;;;5088698;28;20198;-66
2024/01/24 17:43:16;;;;;;;25.93;8.27;;;8.30;99.90;;;;;;5088604;28;20887;-62
2024/01/24 17:45:44;;;;;;;25.70;8.03;;;8.30;99.90;;;;;;5088582;28;20261;-67
2024/01/24 17:48:13;;;;;;;32.37;9.20;;;8.30;99.90;;;;;;5088406;28;20231;-64
2024/01/24 17:50:41;;;;;;;25.60;7.20;;;8.30;99.90;;;;;;5088477;28;20310;-65
2024/01/24 17:53:12;;;;;;;36.00;9.03;;;8.20;99.90;;;;;;5088806;28;20218;-65
2024/01/24 17:55:40;;;;;;;24.77;7.70;;;8.20;99.90;;;;;;5088015;28;20196;-64
2024/01/24 17:58:10;;;;;;;31.30;8.10;;;8.20;99.90;;;;;;5088271;28;20202;-66
2024/01/24 18:00:39;;;;;;;30.03;7.33;;;8.20;99.90;;;;;;5088378;28;20198;-63
2024/01/24 18:03:07;;;;;;;27.27;7.43;;;8.30;99.90;;;;;;5087582;28;20759;-63
2024/01/24 18:05:35;;;;;;;26.47;7.07;;;8.30;99.90;;;;;;5088308;28;20270;-66
2024/01/24 18:08:06;;;;;;;37.80;8.97;;;8.30;99.90;;;;;;5087937;28;20232;-64
2024/01/24 18:10:35;;;;;;;27.00;7.47;;;8.30;99.90;;;;;;5088142;28;20221;-65
2024/01/24 18:13:03;;;;;;;24.27;6.60;;;8.30;99.90;;;;;;5088263;28;20708;-63
2024/01/24 18:15:33;;;;;;;24.20;7.23;;;8.30;99.90;;;;;;5088005;28;20222;-64
2024/01/24 18:18:03;;;;;;;26.97;7.00;;;8.30;99.90;;;;;;5087585;28;20220;-65
2024/01/24 18:20:32;;;;;;;24.63;7.10;;;8.40;99.90;;;;;;5088247;28;20200;-64
2024/01/24 18:23:01;;;;;;;25.07;6.80;;;8.30;99.90;;;;;;5088242;28;20571;-65
2024/01/24 18:25:29;;;;;;;18.03;7.30;;;8.30;99.90;;;;;;5087764;28;20202;-63
2024/01/24 18:27:58;;;;;;;20.93;6.37;;;8.30;99.90;;;;;;5087863;28;20192;-64
2024/01/24 18:30:26;;;;;;;22.50;6.57;;;8.30;99.90;;;;;;5087343;28;20238;-65
2024/01/24 18:32:56;;;;;;;28.43;7.47;;;8.30;99.90;;;;;;5087504;28;20271;-65
2024/01/24 18:35:24;;;;;;;25.67;6.87;;;8.30;99.90;;;;;;5087420;28;20234;-62
2024/01/24 18:37:53;;;;;;;20.10;6.77;;;8.30;99.90;;;;;;5087300;28;20673;-64
2024/01/24 18:40:21;;;;;;;22.03;7.07;;;8.30;99.90;;;;;;5087621;28;20191;-63
2024/01/24 18:42:49;;;;;;;24.63;7.67;;;8.30;99.90;;;;;;5087475;28;20666;-62
2024/01/24 18:45:18;;;;;;;26.40;7.50;;;8.30;99.90;;;;;;5087291;28;20209;-66
2024/01/24 18:47:47;;;;;;;22.87;8.77;;;8.30;99.90;;;;;;5087254;28;20190;-64
2024/01/24 18:50:19;;;;;;;23.87;7.33;;;8.20;99.90;;;;;;5069035;28;20668;-65
2024/01/24 18:52:48;;;;;;;25.43;7.13;;;8.20;99.90;;;;;;5087447;28;20221;-64
2024/01/24 18:55:17;;;;;;;16.80;6.90;;;8.10;99.90;;;;;;5087218;28;20205;-64
2024/01/24 18:57:45;;;;;;;20.23;6.30;;;8.00;99.90;;;;;;5087375;28;20195;-63
2024/01/24 19:00:14;;;;;;;33.57;7.23;;;8.00;99.90;;;;;;5087303;28;20202;-67
2024/01/24 19:02:43;;;;;;;19.47;6.83;;;8.00;99.90;;;;;;5087320;28;20769;-66
2024/01/24 19:05:14;;;;;;;27.27;6.23;;;7.90;99.90;;;;;;5087438;28;20251;-64
2024/01/24 19:07:47;;;;;;;21.67;6.53;;;7.90;99.90;;;;;;5087193;28;20852;-66
2024/01/24 19:10:16;;;;;;;13.03;5.00;;;7.90;99.90;;;;;;5087420;28;20204;-66
2024/01/24 19:12:44;;;;;;;12.47;4.80;;;7.80;99.90;;;;;;5086978;28;20229;-66
2024/01/24 19:15:12;;;;;;;15.80;5.90;;;7.90;99.90;;;;;;5087056;28;20194;-65
2024/01/24 19:17:41;;;;;;;14.00;4.97;;;7.90;99.90;;;;;;5086746;28;20302;-64
2024/01/24 19:20:10;;;;;;;16.87;4.53;;;7.90;99.90;;;;;;5087147;28;20209;-66
2024/01/24 19:22:38;;;;;;;13.37;5.80;;;7.80;99.90;;;;;;5087019;28;20769;-65
2024/01/24 19:25:08;;;;;;;11.30;4.10;;;7.80;99.90;;;;;;5086726;28;20260;-66
2024/01/24 19:27:37;;;;;;;11.13;5.70;;;7.80;99.90;;;;;;5086937;28;20584;-65
2024/01/24 19:30:07;;;;;;;10.87;4.10;;;7.80;99.90;;;;;;5090239;28;20611;-63
2024/01/24 19:32:35;;;;;;;8.70;3.60;;;7.80;99.90;;;;;;5083508;28;20304;-64
2024/01/24 19:35:04;;;;;;;11.60;4.23;;;7.80;99.90;;;;;;5077976;28;20202;-64
2024/01/24 19:37:33;;;;;;;10.27;3.73;;;7.80;99.90;;;;;;5071116;28;20228;-62
2024/01/24 19:40:01;;;;;;;14.63;4.90;;;7.70;99.90;;;;;;5071421;28;20191;-68
2024/01/24 19:42:31;;;;;;;12.30;4.53;;;7.70;99.90;;;;;;5071385;28;20197;-67
2024/01/24 19:45:00;;;;;;;15.10;4.53;;;7.70;99.90;;;;;;5071480;28;20197;-67
2024/01/24 19:47:28;;;;;;;10.77;3.73;;;7.80;99.90;;;;;;5070896;28;20675;-67
2024/01/24 19:49:57;;;;;;;8.17;3.90;;;7.80;99.90;;;;;;5071478;28;20214;-66
2024/01/24 19:52:25;;;;;;;11.43;4.03;;;7.70;99.90;;;;;;5071326;28;20214;-61
2024/01/24 19:54:54;;;;;;;12.20;3.73;;;7.70;99.90;;;;;;5071319;28;20201;-64
2024/01/24 19:57:22;;;;;;;17.30;4.63;;;7.60;99.90;;;;;;5088523;28;20201;-66
2024/01/24 19:59:52;;;;;;;16.17;4.67;;;7.60;99.90;;;;;;5072568;28;20280;-65
2024/01/24 20:02:20;;;;;;;14.20;4.33;;;7.70;99.90;;;;;;5090934;28;20705;-69
2024/01/24 20:04:48;;;;;;;16.77;5.07;;;7.60;99.90;;;;;;5091711;28;20670;-64
2024/01/24 20:07:17;;;;;;;15.33;5.03;;;7.70;99.90;;;;;;5091340;28;20225;-65
2024/01/24 20:09:45;;;;;;;18.33;4.50;;;7.70;99.90;;;;;;5073507;28;20635;-66
2024/01/24 20:12:13;;;;;;;16.13;4.47;;;7.70;99.90;;;;;;5091445;28;20226;-62
2024/01/24 20:14:42;;;;;;;12.60;4.00;;;7.60;99.90;;;;;;5090850;28;20194;-63
2024/01/24 20:17:12;;;;;;;19.07;6.60;;;7.50;99.90;;;;;;5090811;28;20201;-67
2024/01/24 20:19:40;;;;;;;10.07;4.77;;;7.60;99.90;;;;;;5090918;28;20221;-65
2024/01/24 20:22:08;;;;;;;10.53;4.20;;;7.50;99.90;;;;;;5091204;28;20224;-66
2024/01/24 20:24:37;;;;;;;18.73;5.20;;;7.60;99.90;;;;;;5090932;28;20226;-63
2024/01/24 20:27:05;;;;;;;14.63;4.27;;;7.60;99.90;;;;;;5090267;28;20694;-68
2024/01/24 20:29:33;;;;;;;13.33;4.70;;;7.60;99.90;;;;;;5090199;28;20189;-65
2024/01/24 20:32:03;;;;;;;15.40;4.93;;;7.50;99.90;;;;;;5090454;28;21020;-66
2024/01/24 20:34:32;;;;;;;14.60;4.93;;;7.50;99.90;;;;;;5090434;28;20206;-66
2024/01/24 20:37:02;;;;;;;16.40;5.03;;;7.50;99.90;;;;;;5090129;28;20673;-65
2024/01/24 20:39:31;;;;;;;13.30;4.67;;;7.50;99.90;;;;;;5090064;28;20201;-65
2024/01/24 20:42:00;;;;;;;18.83;5.27;;;7.50;99.90;;;;;;5090411;28;20277;-65
2024/01/24 20:44:30;;;;;;;15.00;4.33;;;7.40;99.90;;;;;;5090069;28;20286;-63
2024/01/24 20:46:58;;;;;;;14.50;4.93;;;7.40;99.90;;;;;;5090332;28;20315;-64
2024/01/24 20:49:29;;;;;;;13.53;5.00;;;7.30;99.90;;;;;;5072618;28;20195;-63
2024/01/24 20:51:58;;;;;;;13.90;4.73;;;7.40;99.90;;;;;;5090414;28;20240;-67
2024/01/24 20:54:27;;;;;;;13.13;4.90;;;7.30;99.90;;;;;;5090085;28;20244;-65
2024/01/24 20:56:55;;;;;;;12.63;4.23;;;7.30;99.90;;;;;;5089876;28;20923;-62
2024/01/24 20:59:23;;;;;;;12.20;3.93;;;7.30;99.90;;;;;;5089673;28;20198;-62
2024/01/24 21:01:52;;;;;;;11.37;4.53;;;7.30;99.90;;;;;;5089831;28;20214;-65
2024/01/24 21:04:21;;;;;;;14.73;4.17;;;7.30;99.90;;;;;;5071483;28;20573;-64
2024/01/24 21:06:49;;;;;;;15.17;4.80;;;7.30;99.90;;;;;;5089756;28;20697;-67
2024/01/24 21:09:19;;;;;;;14.60;5.47;;;7.20;99.90;;;;;;5089891;28;20247;-64
2024/01/24 21:11:48;;;;;;;17.40;5.07;;;7.20;99.90;;;;;;5089917;28;20197;-65
2024/01/24 21:14:16;;;;;;;10.60;3.93;;;7.20;99.90;;;;;;5089142;28;20290;-67
2024/01/24 21:16:44;;;;;;;17.33;5.23;;;7.30;99.90;;;;;;5089630;28;20197;-68
2024/01/24 21:19:16;;;;;;;13.10;4.50;;;7.20;99.90;;;;;;5089566;28;20939;-65
2024/01/24 21:21:44;;;;;;;11.10;3.97;;;7.20;99.90;;;;;;5089776;28;20197;-67
2024/01/24 21:24:13;;;;;;;9.83;3.63;;;7.20;99.90;;;;;;5089856;28;20242;-64
2024/01/24 21:26:43;;;;;;;10.93;3.37;;;7.20;99.90;;;;;;5089527;28;20967;-67
2024/01/24 21:29:12;;;;;;;10.30;3.80;;;7.20;99.90;;;;;;5089119;28;20730;-66
2024/01/24 21:31:44;;;;;;;18.73;4.83;;;7.20;99.90;;;;;;5089580;28;20223;-66
2024/01/24 21:34:12;;;;;;;11.53;4.63;;;7.20;99.90;;;;;;5089355;28;20221;-66
2024/01/24 21:36:41;;;;;;;22.07;4.67;;;7.20;99.90;;;;;;5089381;28;20206;-67
2024/01/24 21:39:13;;;;;;;13.60;3.83;;;7.20;99.90;;;;;;5089111;28;20196;-65
2024/01/24 21:41:43;;;;;;;12.63;4.40;;;7.20;99.90;;;;;;5088998;28;20543;-67
2024/01/24 21:44:11;;;;;;;10.60;3.83;;;7.10;99.90;;;;;;5088907;28;20203;-67
2024/01/24 21:46:39;;;;;;;12.43;3.87;;;7.10;99.90;;;;;;5089149;28;20222;-66
2024/01/24 21:49:08;;;;;;;14.03;4.67;;;7.10;99.90;;;;;;5088840;28;20301;-66
2024/01/24 21:51:36;;;;;;;12.23;4.90;;;7.20;99.90;;;;;;5087968;28;20288;-67
2024/01/24 21:54:05;;;;;;;14.87;4.60;;;7.10;99.90;;;;;;5088918;28;21003;-66
2024/01/24 21:56:33;;;;;;;12.67;4.63;;;7.10;99.90;;;;;;5088557;28;20652;-65
2024/01/24 21:59:03;;;;;;;16.80;6.00;;;7.10;99.90;;;;;;5089183;28;20593;-67
2024/01/24 22:01:33;;;;;;;12.03;4.40;;;7.20;99.90;;;;;;5088857;28;20754;-68
2024/01/24 22:04:03;;;;;;;11.70;4.37;;;7.20;99.90;;;;;;5088614;28;20291;-66
2024/01/24 22:06:32;;;;;;;7.83;3.40;;;7.20;99.90;;;;;;5088643;28;20737;-67
2024/01/24 22:09:00;;;;;;;10.77;3.53;;;7.20;99.90;;;;;;5088336;28;20251;-65
2024/01/24 22:11:28;;;;;;;9.30;4.20;;;7.10;99.90;;;;;;5088462;28;20636;-67
2024/01/24 22:13:59;;;;;;;14.20;3.60;;;7.10;99.90;;;;;;5088595;28;20236;-66
2024/01/24 22:16:29;;;;;;;15.00;4.70;;;7.20;99.90;;;;;;5088649;28;20494;-67
2024/01/24 22:18:57;;;;;;;12.03;3.73;;;7.20;99.90;;;;;;5088343;28;20626;-68
2024/01/24 22:21:26;;;;;;;9.70;4.37;;;7.10;99.90;;;;;;5088697;28;20201;-63
2024/01/24 22:23:55;;;;;;;10.63;3.90;;;7.10;99.90;;;;;;5088544;28;20193;-66
2024/01/24 22:26:24;;;;;;;15.63;4.20;;;7.10;99.90;;;;;;5088137;28;20551;-69
2024/01/24 22:28:52;;;;;;;14.37;5.83;;;7.20;99.90;;;;;;5088111;28;20253;-66
2024/01/24 22:31:20;;;;;;;12.43;5.23;;;7.10;99.90;;;;;;5088396;28;20203;-61
2024/01/24 22:33:50;;;;;;;17.80;4.73;;;7.10;99.90;;;;;;5088285;28;20706;-64
2024/01/24 22:36:18;;;;;;;14.23;4.77;;;7.40;99.90;;;;;;5087949;28;20197;-64
2024/01/24 22:38:48;;;;;;;11.67;4.10;;;7.30;99.90;;;;;;5087831;28;20190;-60
2024/01/24 22:41:16;;;;;;;14.47;3.93;;;7.20;99.90;;;;;;5087689;28;20643;-63
2024/01/24 22:43:45;;;;;;;9.07;4.10;;;7.10;99.90;;;;;;5083553;28;20201;-61
2024/01/24 22:46:13;;;;;;;10.83;4.00;;;7.10;99.90;;;;;;5076629;28;20288;-66
2024/01/24 22:48:41;;;;;;;10.60;4.07;;;7.10;99.90;;;;;;5067538;28;20746;-63
2024/01/24 22:51:12;;;;;;;11.40;4.57;;;7.10;99.90;;;;;;5067863;28;20556;-64
2024/01/24 22:53:40;;;;;;;9.77;3.27;;;7.00;99.90;;;;;;5079127;28;20228;-66
2024/01/24 22:56:09;;;;;;;11.43;3.30;;;7.10;99.90;;;;;;5087876;28;20250;-63
2024/01/24 22:58:37;;;;;;;16.03;4.40;;;7.10;99.90;;;;;;5087175;28;20200;-61
2024/01/24 23:01:06;;;;;;;11.20;3.67;;;7.30;99.90;;;;;;5088105;28;20288;-65
2024/01/24 23:03:34;;;;;;;9.23;3.67;;;7.10;99.90;;;;;;5087207;28;20197;-64
2024/01/24 23:06:02;;;;;;;9.27;3.37;;;7.10;99.90;;;;;;5087856;28;20192;-63
2024/01/24 23:08:32;;;;;;;15.73;4.40;;;7.10;99.90;;;;;;5087211;28;20233;-63
2024/01/24 23:11:00;;;;;;;14.77;3.70;;;7.20;99.90;;;;;;5087659;28;20192;-66
2024/01/24 23:13:29;;;;;;;10.53;3.73;;;7.20;99.90;;;;;;5087071;28;20213;-64
2024/01/24 23:15:57;;;;;;;13.97;4.07;;;7.20;99.90;;;;;;5087562;28;20248;-60
2024/01/24 23:18:25;;;;;;;16.10;4.13;;;7.10;99.90;;;;;;5087363;28;20659;-66
2024/01/24 23:20:54;;;;;;;16.23;4.57;;;7.10;99.90;;;;;;5087597;28;20271;-64
2024/01/24 23:23:22;;;;;;;15.33;4.37;;;7.00;99.90;;;;;;5087263;28;20741;-67
2024/01/24 23:25:52;;;;;;;10.07;3.83;;;7.10;99.90;;;;;;5087575;28;20699;-64
2024/01/24 23:28:20;;;;;;;16.13;5.13;;;7.10;99.90;;;;;;5087050;28;20668;-66
2024/01/24 23:30:49;;;;;;;16.83;4.97;;;7.00;99.90;;;;;;5087079;28;20273;-64
2024/01/24 23:33:17;;;;;;;12.23;4.50;;;7.00;99.90;;;;;;5087038;28;20199;-64
2024/01/24 23:35:46;;;;;;;14.53;5.10;;;7.00;99.90;;;;;;5087496;28;20209;-64
2024/01/24 23:38:14;;;;;;;16.63;4.57;;;7.00;99.90;;;;;;5087127;28;20200;-62
2024/01/24 23:40:43;;;;;;;13.87;4.40;;;7.10;99.90;;;;;;5087389;28;20208;-63
2024/01/24 23:43:12;;;;;;;10.97;4.60;;;7.10;99.90;;;;;;5087118;28;20198;-66
2024/01/24 23:45:41;;;;;;;25.53;5.37;;;7.10;99.90;;;;;;5087782;28;20202;-67
2024/01/24 23:48:09;;;;;;;15.47;4.80;;;7.10;99.90;;;;;;5087348;28;20267;-62
2024/01/24 23:50:38;;;;;;;12.43;4.77;;;7.00;99.90;;;;;;5087050;28;20198;-67
2024/01/24 23:53:06;;;;;;;9.37;4.03;;;7.00;99.90;;;;;;5087053;28;20658;-64
2024/01/24 23:55:37;;;;;;;19.23;4.77;;;6.90;99.90;;;;;;5086934;28;20231;-65
2024/01/24 23:58:05;;;;;;;15.80;4.50;;;7.00;99.90;;;;;;5087597;28;20671;-66
